sensor_id;sensor_type;location;lat;lon;timestamp;temperature;humidity
2100;DHT22;1055;48.854;9.302;2024-02-15T00:00:48;12.90;99.90
2100;DHT22;1055;48.854;9.302;2024-02-15T00:03:13;12.90;99.90
2100;DHT22;1055;48.854;9.302;2024-02-15T00:05:39;13.10;99.90
2100;DHT22;1055;48.854;9.302;2024-02-15T00:08:05;13.10;99.90
2100;DHT22;1055;48.854;9.302;2024-02-15T00:10:31;12.90;99.90
2100;DHT22;1055;48.854;9.302;2024-02-15T00:12:58;12.50;99.90
2100;DHT22;1055;48.854;9.302;2024-02-15T00:15:24;12.70;99.90
2100;DHT22;1055;48.854;9.302;2024-02-15T00:17:49;12.60;99.90
2100;DHT22;1055;48.854;9.302;2024-02-15T00:20:15;12.90;99.90
2100;DHT22;1055;48.854;9.302;2024-02-15T00:22:43;13.20;99.90
2100;DHT22;1055;48.854;9.302;2024-02-15T00:25:08;13.40;99.90
2100;DHT22;1055;48.854;9.302;2024-02-15T00:27:35;13.70;99.90
2100;DHT22;1055;48.854;9.302;2024-02-15T00:30:01;13.80;99.90
2100;DHT22;1055;48.854;9.302;2024-02-15T00:32:27;13.90;99.90
2100;DHT22;1055;48.854;9.302;2024-02-15T00:34:53;13.90;99.90
2100;DHT22;1055;48.854;9.302;2024-02-15T00:37:19;13.60;99.90
2100;DHT22;1055;48.854;9.302;2024-02-15T00:39:44;13.60;99.90
2100;DHT22;1055;48.854;9.302;2024-02-15T00:42:10;13.30;99.90
2100;DHT22;1055;48.854;9.302;2024-02-15T00:44:36;13.10;99.90
2100;DHT22;1055;48.854;9.302;2024-02-15T00:47:02;12.80;99.90
2100;DHT22;1055;48.854;9.302;2024-02-15T00:49:28;12.80;99.90
2100;DHT22;1055;48.854;9.302;2024-02-15T00:51:53;12.70;99.90
2100;DHT22;1055;48.854;9.302;2024-02-15T00:54:19;12.60;99.90
2100;DHT22;1055;48.854;9.302;2024-02-15T00:56:44;12.90;99.90
2100;DHT22;1055;48.854;9.302;2024-02-15T00:59:10;13.20;99.90
2100;DHT22;1055;48.854;9.302;2024-02-15T01:01:36;13.30;99.90
2100;DHT22;1055;48.854;9.302;2024-02-15T01:04:06;13.30;99.90
2100;DHT22;1055;48.854;9.302;2024-02-15T01:06:31;13.40;99.90
2100;DHT22;1055;48.854;9.302;2024-02-15T01:08:58;13.40;99.90
2100;DHT22;1055;48.854;9.302;2024-02-15T01:11:26;13.30;99.90
2100;DHT22;1055;48.854;9.302;2024-02-15T01:13:53;13.20;99.90
2100;DHT22;1055;48.854;9.302;2024-02-15T01:16:19;13.20;99.90
2100;DHT22;1055;48.854;9.302;2024-02-15T01:18:47;13.10;99.90
2100;DHT22;1055;48.854;9.302;2024-02-15T01:21:13;13.20;99.90
2100;DHT22;1055;48.854;9.302;2024-02-15T01:23:38;13.40;99.90
2100;DHT22;1055;48.854;9.302;2024-02-15T01:26:04;13.50;99.90
2100;DHT22;1055;48.854;9.302;2024-02-15T01:28:30;13.50;99.90
2100;DHT22;1055;48.854;9.302;2024-02-15T01:30:56;13.60;99.90
2100;DHT22;1055;48.854;9.302;2024-02-15T01:33:21;13.60;99.90
2100;DHT22;1055;48.854;9.302;2024-02-15T01:35:47;13.60;99.90
2100;DHT22;1055;48.854;9.302;2024-02-15T01:38:14;13.60;99.90
2100;DHT22;1055;48.854;9.302;2024-02-15T01:40:39;13.60;99.90
2100;DHT22;1055;48.854;9.302;2024-02-15T01:43:05;13.50;99.90
2100;DHT22;1055;48.854;9.302;2024-02-15T01:45:31;13.50;99.90
2100;DHT22;1055;48.854;9.302;2024-02-15T01:47:57;13.20;99.90
2100;DHT22;1055;48.854;9.302;2024-02-15T01:50:24;13.00;99.90
2100;DHT22;1055;48.854;9.302;2024-02-15T01:52:52;12.90;99.90
2100;DHT22;1055;48.854;9.302;2024-02-15T01:55:20;12.80;99.90
2100;DHT22;1055;48.854;9.302;2024-02-15T01:57:46;12.80;99.90
2100;DHT22;1055;48.854;9.302;2024-02-15T02:00:14;12.60;99.90
2100;DHT22;1055;48.854;9.302;2024-02-15T02:02:42;12.60;99.90
2100;DHT22;1055;48.854;9.302;2024-02-15T02:05:08;12.60;99.90
2100;DHT22;1055;48.854;9.302;2024-02-15T02:07:34;12.50;99.90
2100;DHT22;1055;48.854;9.302;2024-02-15T02:10:00;12.60;99.90
2100;DHT22;1055;48.854;9.302;2024-02-15T02:12:26;12.70;99.90
2100;DHT22;1055;48.854;9.302;2024-02-15T02:14:53;12.60;99.90
2100;DHT22;1055;48.854;9.302;2024-02-15T02:17:19;12.60;99.90
2100;DHT22;1055;48.854;9.302;2024-02-15T02:19:45;12.50;99.90
2100;DHT22;1055;48.854;9.302;2024-02-15T02:22:11;12.20;99.90
2100;DHT22;1055;48.854;9.302;2024-02-15T02:25:04;12.10;99.90
2100;DHT22;1055;48.854;9.302;2024-02-15T02:27:32;12.10;99.90
2100;DHT22;1055;48.854;9.302;2024-02-15T02:29:58;12.00;99.90
2100;DHT22;1055;48.854;9.302;2024-02-15T02:32:25;12.00;99.90
2100;DHT22;1055;48.854;9.302;2024-02-15T02:34:51;12.00;99.90
2100;DHT22;1055;48.854;9.302;2024-02-15T02:37:23;11.90;99.90
2100;DHT22;1055;48.854;9.302;2024-02-15T02:39:48;12.00;99.90
2100;DHT22;1055;48.854;9.302;2024-02-15T02:42:14;12.00;99.90
2100;DHT22;1055;48.854;9.302;2024-02-15T02:44:39;12.00;99.90
2100;DHT22;1055;48.854;9.302;2024-02-15T02:47:05;12.00;99.90
2100;DHT22;1055;48.854;9.302;2024-02-15T02:49:31;12.00;99.90
2100;DHT22;1055;48.854;9.302;2024-02-15T02:51:56;12.00;99.90
2100;DHT22;1055;48.854;9.302;2024-02-15T02:54:22;11.80;99.90
2100;DHT22;1055;48.854;9.302;2024-02-15T02:56:47;11.60;99.90
2100;DHT22;1055;48.854;9.302;2024-02-15T02:59:13;11.50;99.90
2100;DHT22;1055;48.854;9.302;2024-02-15T03:01:39;11.60;99.90
2100;DHT22;1055;48.854;9.302;2024-02-15T03:04:05;11.80;99.90
2100;DHT22;1055;48.854;9.302;2024-02-15T03:06:30;11.80;99.90
2100;DHT22;1055;48.854;9.302;2024-02-15T03:08:56;12.00;99.90
2100;DHT22;1055;48.854;9.302;2024-02-15T03:11:23;11.80;99.90
2100;DHT22;1055;48.854;9.302;2024-02-15T03:13:48;11.60;99.90
2100;DHT22;1055;48.854;9.302;2024-02-15T03:16:14;11.60;99.90
2100;DHT22;1055;48.854;9.302;2024-02-15T03:18:42;11.60;99.90
2100;DHT22;1055;48.854;9.302;2024-02-15T03:21:08;11.50;99.90
2100;DHT22;1055;48.854;9.302;2024-02-15T03:23:39;11.60;99.90
2100;DHT22;1055;48.854;9.302;2024-02-15T03:26:07;11.50;99.90
2100;DHT22;1055;48.854;9.302;2024-02-15T03:28:33;11.60;99.90
2100;DHT22;1055;48.854;9.302;2024-02-15T03:31:02;11.60;99.90
2100;DHT22;1055;48.854;9.302;2024-02-15T03:33:27;11.40;99.90
2100;DHT22;1055;48.854;9.302;2024-02-15T03:35:58;11.50;99.90
2100;DHT22;1055;48.854;9.302;2024-02-15T03:38:26;11.50;99.90
2100;DHT22;1055;48.854;9.302;2024-02-15T03:40:52;11.30;99.90
2100;DHT22;1055;48.854;9.302;2024-02-15T03:43:19;11.30;99.90
2100;DHT22;1055;48.854;9.302;2024-02-15T03:45:44;11.10;99.90
2100;DHT22;1055;48.854;9.302;2024-02-15T03:48:10;11.00;99.90
2100;DHT22;1055;48.854;9.302;2024-02-15T03:50:35;11.10;99.90
2100;DHT22;1055;48.854;9.302;2024-02-15T03:53:01;11.10;99.90
2100;DHT22;1055;48.854;9.302;2024-02-15T03:55:27;11.20;99.90
2100;DHT22;1055;48.854;9.302;2024-02-15T03:57:52;11.00;99.90
2100;DHT22;1055;48.854;9.302;2024-02-15T04:00:20;10.60;99.90
2100;DHT22;1055;48.854;9.302;2024-02-15T04:02:46;10.40;99.90
2100;DHT22;1055;48.854;9.302;2024-02-15T04:05:14;10.30;99.90
2100;DHT22;1055;48.854;9.302;2024-02-15T04:07:40;10.20;99.90
2100;DHT22;1055;48.854;9.302;2024-02-15T04:10:06;10.10;99.90
2100;DHT22;1055;48.854;9.302;2024-02-15T04:12:32;10.10;99.90
2100;DHT22;1055;48.854;9.302;2024-02-15T04:14:58;9.90;99.90
2100;DHT22;1055;48.854;9.302;2024-02-15T04:17:31;9.80;99.90
2100;DHT22;1055;48.854;9.302;2024-02-15T04:20:00;9.90;99.90
2100;DHT22;1055;48.854;9.302;2024-02-15T04:22:26;9.80;99.90
2100;DHT22;1055;48.854;9.302;2024-02-15T04:24:51;9.70;99.90
2100;DHT22;1055;48.854;9.302;2024-02-15T04:27:17;9.70;99.90
2100;DHT22;1055;48.854;9.302;2024-02-15T04:29:46;9.80;99.90
2100;DHT22;1055;48.854;9.302;2024-02-15T04:32:12;9.80;99.90
2100;DHT22;1055;48.854;9.302;2024-02-15T04:34:39;10.00;99.90
2100;DHT22;1055;48.854;9.302;2024-02-15T04:37:05;9.70;99.90
2100;DHT22;1055;48.854;9.302;2024-02-15T04:39:36;9.80;99.90
2100;DHT22;1055;48.854;9.302;2024-02-15T04:42:03;9.90;99.90
2100;DHT22;1055;48.854;9.302;2024-02-15T04:44:30;9.70;99.90
2100;DHT22;1055;48.854;9.302;2024-02-15T04:46:55;9.90;99.90
2100;DHT22;1055;48.854;9.302;2024-02-15T04:49:21;10.20;99.90
2100;DHT22;1055;48.854;9.302;2024-02-15T04:51:48;10.00;99.90
2100;DHT22;1055;48.854;9.302;2024-02-15T04:54:14;10.40;99.90
2100;DHT22;1055;48.854;9.302;2024-02-15T04:56:40;10.00;99.90
2100;DHT22;1055;48.854;9.302;2024-02-15T04:59:07;9.90;99.90
2100;DHT22;1055;48.854;9.302;2024-02-15T05:01:34;10.20;99.90
2100;DHT22;1055;48.854;9.302;2024-02-15T05:04:01;10.20;99.90
2100;DHT22;1055;48.854;9.302;2024-02-15T05:06:31;10.50;99.90
2100;DHT22;1055;48.854;9.302;2024-02-15T05:08:57;10.60;99.90
2100;DHT22;1055;48.854;9.302;2024-02-15T05:11:25;10.50;99.90
2100;DHT22;1055;48.854;9.302;2024-02-15T05:13:51;10.70;99.90
2100;DHT22;1055;48.854;9.302;2024-02-15T05:16:18;11.00;99.90
2100;DHT22;1055;48.854;9.302;2024-02-15T05:18:44;11.30;99.90
2100;DHT22;1055;48.854;9.302;2024-02-15T05:21:13;11.40;99.90
2100;DHT22;1055;48.854;9.302;2024-02-15T05:23:39;11.50;99.90
2100;DHT22;1055;48.854;9.302;2024-02-15T05:26:06;11.40;99.90
2100;DHT22;1055;48.854;9.302;2024-02-15T05:28:32;11.70;99.90
2100;DHT22;1055;48.854;9.302;2024-02-15T05:31:14;11.50;99.90
2100;DHT22;1055;48.854;9.302;2024-02-15T05:33:43;11.30;99.90
2100;DHT22;1055;48.854;9.302;2024-02-15T05:36:11;11.40;99.90
2100;DHT22;1055;48.854;9.302;2024-02-15T05:38:36;10.90;99.90
2100;DHT22;1055;48.854;9.302;2024-02-15T05:41:02;10.80;99.90
2100;DHT22;1055;48.854;9.302;2024-02-15T05:43:28;10.80;99.90
2100;DHT22;1055;48.854;9.302;2024-02-15T05:45:54;10.70;99.90
2100;DHT22;1055;48.854;9.302;2024-02-15T05:48:20;10.70;99.90
2100;DHT22;1055;48.854;9.302;2024-02-15T05:50:46;11.00;99.90
2100;DHT22;1055;48.854;9.302;2024-02-15T05:53:12;11.10;99.90
2100;DHT22;1055;48.854;9.302;2024-02-15T05:55:38;11.30;99.90
2100;DHT22;1055;48.854;9.302;2024-02-15T05:58:06;11.60;99.90
2100;DHT22;1055;48.854;9.302;2024-02-15T06:00:34;11.80;99.90
2100;DHT22;1055;48.854;9.302;2024-02-15T06:03:00;11.60;99.90
2100;DHT22;1055;48.854;9.302;2024-02-15T06:05:27;11.50;99.90
2100;DHT22;1055;48.854;9.302;2024-02-15T06:07:53;11.00;99.90
2100;DHT22;1055;48.854;9.302;2024-02-15T06:10:18;11.00;99.90
2100;DHT22;1055;48.854;9.302;2024-02-15T06:12:44;10.70;99.90
2100;DHT22;1055;48.854;9.302;2024-02-15T06:15:10;10.90;99.90
2100;DHT22;1055;48.854;9.302;2024-02-15T06:17:41;11.00;99.90
2100;DHT22;1055;48.854;9.302;2024-02-15T06:20:10;10.80;99.90
2100;DHT22;1055;48.854;9.302;2024-02-15T06:22:40;11.00;99.90
2100;DHT22;1055;48.854;9.302;2024-02-15T06:25:09;11.20;99.90
2100;DHT22;1055;48.854;9.302;2024-02-15T06:27:36;11.50;99.90
2100;DHT22;1055;48.854;9.302;2024-02-15T06:30:07;11.80;99.90
2100;DHT22;1055;48.854;9.302;2024-02-15T06:32:51;12.00;99.90
2100;DHT22;1055;48.854;9.302;2024-02-15T06:35:37;12.10;99.90
2100;DHT22;1055;48.854;9.302;2024-02-15T06:38:21;12.10;99.90
2100;DHT22;1055;48.854;9.302;2024-02-15T06:41:05;12.30;99.90
2100;DHT22;1055;48.854;9.302;2024-02-15T06:43:31;12.10;99.90
2100;DHT22;1055;48.854;9.302;2024-02-15T06:45:57;11.80;99.90
2100;DHT22;1055;48.854;9.302;2024-02-15T06:48:24;11.60;99.90
2100;DHT22;1055;48.854;9.302;2024-02-15T06:50:50;11.20;99.90
2100;DHT22;1055;48.854;9.302;2024-02-15T06:53:16;11.00;99.90
2100;DHT22;1055;48.854;9.302;2024-02-15T06:55:43;11.00;99.90
2100;DHT22;1055;48.854;9.302;2024-02-15T06:58:10;11.00;99.90
2100;DHT22;1055;48.854;9.302;2024-02-15T07:00:35;11.20;99.90
2100;DHT22;1055;48.854;9.302;2024-02-15T07:03:01;11.10;99.90
2100;DHT22;1055;48.854;9.302;2024-02-15T07:05:26;11.10;99.90
2100;DHT22;1055;48.854;9.302;2024-02-15T07:07:53;11.10;99.90
2100;DHT22;1055;48.854;9.302;2024-02-15T07:10:20;11.00;99.90
2100;DHT22;1055;48.854;9.302;2024-02-15T07:12:46;11.10;99.90
2100;DHT22;1055;48.854;9.302;2024-02-15T07:15:12;11.20;99.90
2100;DHT22;1055;48.854;9.302;2024-02-15T07:17:38;11.40;99.90
2100;DHT22;1055;48.854;9.302;2024-02-15T07:20:04;11.20;99.90
2100;DHT22;1055;48.854;9.302;2024-02-15T07:22:33;11.60;99.90
2100;DHT22;1055;48.854;9.302;2024-02-15T07:24:58;11.50;99.90
2100;DHT22;1055;48.854;9.302;2024-02-15T07:27:24;11.60;99.90
2100;DHT22;1055;48.854;9.302;2024-02-15T07:29:51;11.60;99.90
2100;DHT22;1055;48.854;9.302;2024-02-15T07:32:17;10.80;99.90
2100;DHT22;1055;48.854;9.302;2024-02-15T07:34:44;11.10;99.90
2100;DHT22;1055;48.854;9.302;2024-02-15T07:37:11;11.00;99.90
2100;DHT22;1055;48.854;9.302;2024-02-15T07:39:38;11.00;99.90
2100;DHT22;1055;48.854;9.302;2024-02-15T07:42:03;11.00;99.90
2100;DHT22;1055;48.854;9.302;2024-02-15T07:44:30;10.80;99.90
2100;DHT22;1055;48.854;9.302;2024-02-15T07:46:58;10.90;99.90
2100;DHT22;1055;48.854;9.302;2024-02-15T07:49:26;11.10;99.90
2100;DHT22;1055;48.854;9.302;2024-02-15T07:51:51;11.00;99.90
2100;DHT22;1055;48.854;9.302;2024-02-15T07:54:19;11.10;99.90
2100;DHT22;1055;48.854;9.302;2024-02-15T07:56:47;11.50;99.90
2100;DHT22;1055;48.854;9.302;2024-02-15T07:59:14;11.80;99.90
2100;DHT22;1055;48.854;9.302;2024-02-15T08:01:43;12.00;99.90
2100;DHT22;1055;48.854;9.302;2024-02-15T08:04:09;12.10;99.90
2100;DHT22;1055;48.854;9.302;2024-02-15T08:06:34;12.30;99.90
2100;DHT22;1055;48.854;9.302;2024-02-15T08:09:02;12.30;99.90
2100;DHT22;1055;48.854;9.302;2024-02-15T08:11:31;12.00;99.90
2100;DHT22;1055;48.854;9.302;2024-02-15T08:13:57;11.80;99.90
2100;DHT22;1055;48.854;9.302;2024-02-15T08:16:25;11.70;99.90
2100;DHT22;1055;48.854;9.302;2024-02-15T08:18:53;11.80;99.90
2100;DHT22;1055;48.854;9.302;2024-02-15T08:21:30;11.80;99.90
2100;DHT22;1055;48.854;9.302;2024-02-15T08:23:59;12.10;99.90
2100;DHT22;1055;48.854;9.302;2024-02-15T08:26:26;12.20;99.90
2100;DHT22;1055;48.854;9.302;2024-02-15T08:28:51;12.50;99.90
2100;DHT22;1055;48.854;9.302;2024-02-15T08:31:18;12.60;99.90
2100;DHT22;1055;48.854;9.302;2024-02-15T08:33:44;12.40;99.90
2100;DHT22;1055;48.854;9.302;2024-02-15T08:36:11;12.60;99.90
2100;DHT22;1055;48.854;9.302;2024-02-15T08:38:39;12.70;99.90
2100;DHT22;1055;48.854;9.302;2024-02-15T08:41:04;12.40;99.90
2100;DHT22;1055;48.854;9.302;2024-02-15T08:43:32;12.30;99.90
2100;DHT22;1055;48.854;9.302;2024-02-15T08:46:00;12.50;99.90
2100;DHT22;1055;48.854;9.302;2024-02-15T08:48:26;12.50;99.90
2100;DHT22;1055;48.854;9.302;2024-02-15T08:50:52;12.60;99.90
2100;DHT22;1055;48.854;9.302;2024-02-15T08:53:18;12.90;99.90
2100;DHT22;1055;48.854;9.302;2024-02-15T08:55:47;13.20;99.90
2100;DHT22;1055;48.854;9.302;2024-02-15T08:58:13;12.80;99.90
2100;DHT22;1055;48.854;9.302;2024-02-15T09:00:39;13.00;99.90
2100;DHT22;1055;48.854;9.302;2024-02-15T09:03:10;13.20;99.90
2100;DHT22;1055;48.854;9.302;2024-02-15T09:05:35;13.40;99.90
2100;DHT22;1055;48.854;9.302;2024-02-15T09:08:01;13.50;99.90
2100;DHT22;1055;48.854;9.302;2024-02-15T09:10:28;13.50;99.90
2100;DHT22;1055;48.854;9.302;2024-02-15T09:12:55;13.70;99.90
2100;DHT22;1055;48.854;9.302;2024-02-15T09:15:21;13.60;99.90
2100;DHT22;1055;48.854;9.302;2024-02-15T09:17:47;13.90;99.90
2100;DHT22;1055;48.854;9.302;2024-02-15T09:20:14;14.20;99.90
2100;DHT22;1055;48.854;9.302;2024-02-15T09:22:51;13.90;99.90
2100;DHT22;1055;48.854;9.302;2024-02-15T09:25:20;13.90;99.90
2100;DHT22;1055;48.854;9.302;2024-02-15T09:27:45;13.90;99.90
2100;DHT22;1055;48.854;9.302;2024-02-15T09:30:12;14.10;99.90
2100;DHT22;1055;48.854;9.302;2024-02-15T09:32:41;14.00;99.90
2100;DHT22;1055;48.854;9.302;2024-02-15T09:35:08;14.40;99.90
2100;DHT22;1055;48.854;9.302;2024-02-15T09:37:37;14.40;99.90
2100;DHT22;1055;48.854;9.302;2024-02-15T09:40:08;14.70;99.90
2100;DHT22;1055;48.854;9.302;2024-02-15T09:42:35;14.30;99.90
2100;DHT22;1055;48.854;9.302;2024-02-15T09:45:04;14.60;99.90
2100;DHT22;1055;48.854;9.302;2024-02-15T09:47:34;14.70;99.90
2100;DHT22;1055;48.854;9.302;2024-02-15T09:50:00;14.80;99.90
2100;DHT22;1055;48.854;9.302;2024-02-15T09:52:27;14.90;99.90
2100;DHT22;1055;48.854;9.302;2024-02-15T09:54:57;15.00;99.90
2100;DHT22;1055;48.854;9.302;2024-02-15T09:57:24;14.60;99.90
2100;DHT22;1055;48.854;9.302;2024-02-15T09:59:49;14.60;99.90
2100;DHT22;1055;48.854;9.302;2024-02-15T10:02:15;14.90;99.90
2100;DHT22;1055;48.854;9.302;2024-02-15T10:04:41;14.70;99.90
2100;DHT22;1055;48.854;9.302;2024-02-15T10:07:07;15.00;99.90
2100;DHT22;1055;48.854;9.302;2024-02-15T10:09:36;14.40;99.90
2100;DHT22;1055;48.854;9.302;2024-02-15T10:12:08;14.70;99.90
2100;DHT22;1055;48.854;9.302;2024-02-15T10:14:34;15.00;99.90
2100;DHT22;1055;48.854;9.302;2024-02-15T10:17:06;15.10;99.90
2100;DHT22;1055;48.854;9.302;2024-02-15T10:19:37;14.80;99.90
2100;DHT22;1055;48.854;9.302;2024-02-15T10:22:10;14.50;99.90
2100;DHT22;1055;48.854;9.302;2024-02-15T10:24:37;14.60;99.90
2100;DHT22;1055;48.854;9.302;2024-02-15T10:27:05;14.60;99.90
2100;DHT22;1055;48.854;9.302;2024-02-15T10:29:32;14.40;99.90
2100;DHT22;1055;48.854;9.302;2024-02-15T10:32:00;14.80;99.90
2100;DHT22;1055;48.854;9.302;2024-02-15T10:34:26;14.80;99.90
2100;DHT22;1055;48.854;9.302;2024-02-15T10:37:09;14.50;99.90
2100;DHT22;1055;48.854;9.302;2024-02-15T10:39:36;14.80;99.90
2100;DHT22;1055;48.854;9.302;2024-02-15T10:42:03;14.70;99.90
2100;DHT22;1055;48.854;9.302;2024-02-15T10:44:29;14.80;99.90
2100;DHT22;1055;48.854;9.302;2024-02-15T10:46:54;14.90;99.90
2100;DHT22;1055;48.854;9.302;2024-02-15T10:49:24;14.90;99.90
2100;DHT22;1055;48.854;9.302;2024-02-15T10:51:52;15.00;99.90
2100;DHT22;1055;48.854;9.302;2024-02-15T10:57:05;15.00;99.90
2100;DHT22;1055;48.854;9.302;2024-02-15T10:59:35;15.00;99.90
2100;DHT22;1055;48.854;9.302;2024-02-15T11:04:40;15.00;99.90
2100;DHT22;1055;48.854;9.302;2024-02-15T11:07:08;15.20;99.90
2100;DHT22;1055;48.854;9.302;2024-02-15T11:09:34;15.40;99.90
2100;DHT22;1055;48.854;9.302;2024-02-15T11:12:01;15.50;99.90
2100;DHT22;1055;48.854;9.302;2024-02-15T11:16:58;15.30;99.90
2100;DHT22;1055;48.854;9.302;2024-02-15T11:22:02;15.60;99.90
2100;DHT22;1055;48.854;9.302;2024-02-15T11:24:34;15.60;99.90
2100;DHT22;1055;48.854;9.302;2024-02-15T11:27:04;15.70;99.90
2100;DHT22;1055;48.854;9.302;2024-02-15T11:29:50;15.70;99.90
2100;DHT22;1055;48.854;9.302;2024-02-15T11:35:13;15.70;99.90
2100;DHT22;1055;48.854;9.302;2024-02-15T11:42:53;16.20;99.90
2100;DHT22;1055;48.854;9.302;2024-02-15T11:45:19;16.40;99.90
2100;DHT22;1055;48.854;9.302;2024-02-15T11:47:50;16.60;99.90
2100;DHT22;1055;48.854;9.302;2024-02-15T11:50:18;16.60;99.90
2100;DHT22;1055;48.854;9.302;2024-02-15T11:52:44;16.50;99.90
2100;DHT22;1055;48.854;9.302;2024-02-15T11:55:11;16.50;99.90
2100;DHT22;1055;48.854;9.302;2024-02-15T11:57:39;16.50;99.90
2100;DHT22;1055;48.854;9.302;2024-02-15T12:00:39;16.60;99.90
2100;DHT22;1055;48.854;9.302;2024-02-15T12:03:24;16.80;99.90
2100;DHT22;1055;48.854;9.302;2024-02-15T12:06:08;16.30;99.90
2100;DHT22;1055;48.854;9.302;2024-02-15T12:08:53;16.40;99.90
2100;DHT22;1055;48.854;9.302;2024-02-15T12:11:38;16.40;99.90
2100;DHT22;1055;48.854;9.302;2024-02-15T12:14:22;16.60;99.90
2100;DHT22;1055;48.854;9.302;2024-02-15T12:17:11;16.40;99.90
2100;DHT22;1055;48.854;9.302;2024-02-15T12:20:00;16.30;99.90
2100;DHT22;1055;48.854;9.302;2024-02-15T12:22:30;16.40;99.90
2100;DHT22;1055;48.854;9.302;2024-02-15T12:24:57;16.60;99.90
2100;DHT22;1055;48.854;9.302;2024-02-15T12:27:24;16.70;99.90
2100;DHT22;1055;48.854;9.302;2024-02-15T12:29:56;16.50;99.90
2100;DHT22;1055;48.854;9.302;2024-02-15T12:32:24;16.60;99.90
2100;DHT22;1055;48.854;9.302;2024-02-15T12:34:50;16.60;99.90
2100;DHT22;1055;48.854;9.302;2024-02-15T12:37:20;16.80;99.90
2100;DHT22;1055;48.854;9.302;2024-02-15T12:39:49;17.00;99.90
2100;DHT22;1055;48.854;9.302;2024-02-15T12:42:16;16.60;99.90
2100;DHT22;1055;48.854;9.302;2024-02-15T12:44:46;16.60;99.90
2100;DHT22;1055;48.854;9.302;2024-02-15T12:47:22;17.20;99.90
2100;DHT22;1055;48.854;9.302;2024-02-15T12:49:48;17.50;99.90
2100;DHT22;1055;48.854;9.302;2024-02-15T12:52:36;17.20;99.90
2100;DHT22;1055;48.854;9.302;2024-02-15T12:55:10;17.40;99.90
2100;DHT22;1055;48.854;9.302;2024-02-15T12:57:36;17.50;99.90
2100;DHT22;1055;48.854;9.302;2024-02-15T13:00:06;17.00;99.90
2100;DHT22;1055;48.854;9.302;2024-02-15T13:02:40;17.00;99.90
2100;DHT22;1055;48.854;9.302;2024-02-15T13:05:06;17.60;99.90
2100;DHT22;1055;48.854;9.302;2024-02-15T13:07:35;17.70;99.90
2100;DHT22;1055;48.854;9.302;2024-02-15T13:10:01;17.80;99.90
2100;DHT22;1055;48.854;9.302;2024-02-15T13:12:27;17.50;99.90
2100;DHT22;1055;48.854;9.302;2024-02-15T13:14:54;17.80;99.90
2100;DHT22;1055;48.854;9.302;2024-02-15T13:17:19;18.00;99.90
2100;DHT22;1055;48.854;9.302;2024-02-15T13:19:46;17.20;99.90
2100;DHT22;1055;48.854;9.302;2024-02-15T13:22:17;17.30;99.90
2100;DHT22;1055;48.854;9.302;2024-02-15T13:24:44;17.40;99.90
2100;DHT22;1055;48.854;9.302;2024-02-15T13:27:10;17.70;99.90
2100;DHT22;1055;48.854;9.302;2024-02-15T13:29:38;17.70;99.90
2100;DHT22;1055;48.854;9.302;2024-02-15T13:32:03;18.10;99.90
2100;DHT22;1055;48.854;9.302;2024-02-15T13:34:31;18.40;99.90
2100;DHT22;1055;48.854;9.302;2024-02-15T13:36:58;18.00;99.90
2100;DHT22;1055;48.854;9.302;2024-02-15T13:39:27;18.40;99.90
2100;DHT22;1055;48.854;9.302;2024-02-15T13:42:01;18.80;99.90
2100;DHT22;1055;48.854;9.302;2024-02-15T13:44:26;18.80;99.90
2100;DHT22;1055;48.854;9.302;2024-02-15T13:46:52;18.00;99.90
2100;DHT22;1055;48.854;9.302;2024-02-15T13:49:21;18.40;99.90
2100;DHT22;1055;48.854;9.302;2024-02-15T13:51:47;18.40;99.90
2100;DHT22;1055;48.854;9.302;2024-02-15T13:54:12;18.60;99.90
2100;DHT22;1055;48.854;9.302;2024-02-15T13:56:38;18.70;99.90
2100;DHT22;1055;48.854;9.302;2024-02-15T13:59:05;19.10;99.90
2100;DHT22;1055;48.854;9.302;2024-02-15T14:01:31;19.00;99.90
2100;DHT22;1055;48.854;9.302;2024-02-15T14:03:56;19.50;99.80
2100;DHT22;1055;48.854;9.302;2024-02-15T14:06:22;18.60;97.90
2100;DHT22;1055;48.854;9.302;2024-02-15T14:08:49;19.10;99.90
2100;DHT22;1055;48.854;9.302;2024-02-15T14:11:16;18.30;98.20
2100;DHT22;1055;48.854;9.302;2024-02-15T14:13:43;18.20;98.80
2100;DHT22;1055;48.854;9.302;2024-02-15T14:16:08;18.10;99.00
2100;DHT22;1055;48.854;9.302;2024-02-15T14:18:34;18.20;99.80
2100;DHT22;1055;48.854;9.302;2024-02-15T14:21:00;18.10;99.30
2100;DHT22;1055;48.854;9.302;2024-02-15T14:23:26;17.90;99.00
2100;DHT22;1055;48.854;9.302;2024-02-15T14:25:53;18.00;99.10
2100;DHT22;1055;48.854;9.302;2024-02-15T14:28:18;18.20;99.90
2100;DHT22;1055;48.854;9.302;2024-02-15T14:30:44;18.50;99.30
2100;DHT22;1055;48.854;9.302;2024-02-15T14:33:28;19.00;99.50
2100;DHT22;1055;48.854;9.302;2024-02-15T14:35:54;19.30;98.60
2100;DHT22;1055;48.854;9.302;2024-02-15T14:38:20;19.20;98.10
2100;DHT22;1055;48.854;9.302;2024-02-15T14:40:48;18.90;98.50
2100;DHT22;1055;48.854;9.302;2024-02-15T14:43:19;19.00;98.30
2100;DHT22;1055;48.854;9.302;2024-02-15T14:45:46;19.20;97.70
2100;DHT22;1055;48.854;9.302;2024-02-15T14:48:13;19.40;97.60
2100;DHT22;1055;48.854;9.302;2024-02-15T14:50:42;19.20;96.80
2100;DHT22;1055;48.854;9.302;2024-02-15T14:53:08;19.10;97.10
2100;DHT22;1055;48.854;9.302;2024-02-15T14:55:34;19.10;96.90
2100;DHT22;1055;48.854;9.302;2024-02-15T14:58:00;19.40;97.70
2100;DHT22;1055;48.854;9.302;2024-02-15T15:00:26;18.70;97.50
2100;DHT22;1055;48.854;9.302;2024-02-15T15:02:53;18.80;98.10
2100;DHT22;1055;48.854;9.302;2024-02-15T15:05:18;18.80;98.20
2100;DHT22;1055;48.854;9.302;2024-02-15T15:08:03;18.70;97.30
2100;DHT22;1055;48.854;9.302;2024-02-15T15:10:48;19.00;97.20
2100;DHT22;1055;48.854;9.302;2024-02-15T15:13:34;18.50;97.20
2100;DHT22;1055;48.854;9.302;2024-02-15T15:16:01;18.50;97.90
2100;DHT22;1055;48.854;9.302;2024-02-15T15:18:33;18.70;98.10
2100;DHT22;1055;48.854;9.302;2024-02-15T15:20:59;18.70;98.00
2100;DHT22;1055;48.854;9.302;2024-02-15T15:23:27;18.90;98.30
2100;DHT22;1055;48.854;9.302;2024-02-15T15:25:56;18.60;97.80
2100;DHT22;1055;48.854;9.302;2024-02-15T15:28:22;18.70;98.00
2100;DHT22;1055;48.854;9.302;2024-02-15T15:30:49;19.10;98.10
2100;DHT22;1055;48.854;9.302;2024-02-15T15:33:17;19.00;98.50
2100;DHT22;1055;48.854;9.302;2024-02-15T15:35:43;19.40;98.00
2100;DHT22;1055;48.854;9.302;2024-02-15T15:38:09;19.30;97.50
2100;DHT22;1055;48.854;9.302;2024-02-15T15:40:35;19.20;98.10
2100;DHT22;1055;48.854;9.302;2024-02-15T15:43:01;19.20;97.30
2100;DHT22;1055;48.854;9.302;2024-02-15T15:45:28;19.00;97.90
2100;DHT22;1055;48.854;9.302;2024-02-15T15:47:54;19.30;98.20
2100;DHT22;1055;48.854;9.302;2024-02-15T15:50:20;19.10;98.30
2100;DHT22;1055;48.854;9.302;2024-02-15T15:52:45;18.90;98.40
2100;DHT22;1055;48.854;9.302;2024-02-15T15:55:11;18.60;99.20
2100;DHT22;1055;48.854;9.302;2024-02-15T15:57:38;18.30;99.50
2100;DHT22;1055;48.854;9.302;2024-02-15T16:00:06;17.60;99.90
2100;DHT22;1055;48.854;9.302;2024-02-15T16:02:33;17.30;99.90
2100;DHT22;1055;48.854;9.302;2024-02-15T16:04:58;17.40;99.90
2100;DHT22;1055;48.854;9.302;2024-02-15T16:07:24;17.20;99.90
2100;DHT22;1055;48.854;9.302;2024-02-15T16:09:50;17.40;99.90
2100;DHT22;1055;48.854;9.302;2024-02-15T16:12:15;17.10;99.90
2100;DHT22;1055;48.854;9.302;2024-02-15T16:14:44;17.00;99.90
2100;DHT22;1055;48.854;9.302;2024-02-15T16:17:13;17.20;99.90
2100;DHT22;1055;48.854;9.302;2024-02-15T16:19:39;17.10;99.90
2100;DHT22;1055;48.854;9.302;2024-02-15T16:22:06;16.90;99.90
2100;DHT22;1055;48.854;9.302;2024-02-15T16:24:32;17.10;99.90